sensor_id;sensor_type;location;lat;lon;timestamp;pressure;altitude;pressure_sealevel;temperature;humidity
38716;BME280;24833;49.324;8.694;2023-11-18T00:02:04;100683.47;;;6.24;100.00
38716;BME280;24833;49.324;8.694;2023-11-18T00:04:32;100688.78;;;6.24;100.00
38716;BME280;24833;49.324;8.694;2023-11-18T00:06:59;100687.13;;;6.23;100.00
38716;BME280;24833;49.324;8.694;2023-11-18T00:09:27;100689.78;;;6.23;100.00
38716;BME280;24833;49.324;8.694;2023-11-18T00:11:53;100680.97;;;6.23;100.00
38716;BME280;24833;49.324;8.694;2023-11-18T00:14:20;100677.63;;;6.21;100.00
38716;BME280;24833;49.324;8.694;2023-11-18T00:16:48;100680.41;;;6.19;100.00
38716;BME280;24833;49.324;8.694;2023-11-18T00:19:15;100684.88;;;6.19;100.00
38716;BME280;24833;49.324;8.694;2023-11-18T00:21:42;100686.03;;;6.16;100.00
38716;BME280;24833;49.324;8.694;2023-11-18T00:24:10;100696.63;;;6.16;100.00
38716;BME280;24833;49.324;8.694;2023-11-18T00:26:37;100694.97;;;6.15;100.00
38716;BME280;24833;49.324;8.694;2023-11-18T00:29:05;100694.09;;;6.15;100.00
38716;BME280;24833;49.324;8.694;2023-11-18T00:31:32;100686.28;;;6.13;100.00
38716;BME280;24833;49.324;8.694;2023-11-18T00:33:59;100689.94;;;6.12;100.00
38716;BME280;24833;49.324;8.694;2023-11-18T00:36:26;100684.63;;;6.12;100.00
38716;BME280;24833;49.324;8.694;2023-11-18T00:38:53;100684.78;;;6.11;100.00
38716;BME280;24833;49.324;8.694;2023-11-18T00:41:20;100687.59;;;6.09;100.00
38716;BME280;24833;49.324;8.694;2023-11-18T00:43:48;100685.88;;;6.08;100.00
38716;BME280;24833;49.324;8.694;2023-11-18T00:46:15;100683.22;;;6.08;100.00
38716;BME280;24833;49.324;8.694;2023-11-18T00:48:42;100688.53;;;6.08;100.00
38716;BME280;24833;49.324;8.694;2023-11-18T00:51:11;100686.88;;;6.07;100.00
38716;BME280;24833;49.324;8.694;2023-11-18T00:53:38;100694.00;;;6.07;100.00
38716;BME280;24833;49.324;8.694;2023-11-18T00:56:06;100683.53;;;6.05;100.00
38716;BME280;24833;49.324;8.694;2023-11-18T00:58:35;100689.66;;;6.06;100.00
38716;BME280;24833;49.324;8.694;2023-11-18T01:01:06;100694.13;;;6.05;100.00
38716;BME280;24833;49.324;8.694;2023-11-18T01:03:34;100692.47;;;6.04;100.00
38716;BME280;24833;49.324;8.694;2023-11-18T01:06:01;100692.47;;;6.04;100.00
38716;BME280;24833;49.324;8.694;2023-11-18T01:08:28;100697.78;;;6.04;100.00
38716;BME280;24833;49.324;8.694;2023-11-18T01:10:55;100702.25;;;6.04;100.00
38716;BME280;24833;49.324;8.694;2023-11-18T01:13:22;100699.75;;;6.02;100.00
38716;BME280;24833;49.324;8.694;2023-11-18T01:15:49;100709.47;;;6.01;100.00
38716;BME280;24833;49.324;8.694;2023-11-18T01:18:16;100713.94;;;6.01;100.00
38716;BME280;24833;49.324;8.694;2023-11-18T01:20:44;100713.94;;;6.01;100.00
38716;BME280;24833;49.324;8.694;2023-11-18T01:23:11;100713.94;;;6.01;100.00
38716;BME280;24833;49.324;8.694;2023-11-18T01:25:38;100715.75;;;6.00;100.00
38716;BME280;24833;49.324;8.694;2023-11-18T01:28:06;100706.97;;;6.00;100.00
38716;BME280;24833;49.324;8.694;2023-11-18T01:30:33;100710.59;;;5.99;100.00
38716;BME280;24833;49.324;8.694;2023-11-18T01:33:00;100714.25;;;5.98;100.00
38716;BME280;24833;49.324;8.694;2023-11-18T01:35:28;100706.28;;;5.98;100.00
38716;BME280;24833;49.324;8.694;2023-11-18T01:37:55;100702.81;;;5.97;100.00
38716;BME280;24833;49.324;8.694;2023-11-18T01:40:22;100713.41;;;5.97;100.00
38716;BME280;24833;49.324;8.694;2023-11-18T01:42:50;100705.59;;;5.96;100.00
38716;BME280;24833;49.324;8.694;2023-11-18T01:45:17;100696.69;;;5.97;100.00
38716;BME280;24833;49.324;8.694;2023-11-18T01:47:45;100697.66;;;5.96;100.00
38716;BME280;24833;49.324;8.694;2023-11-18T01:50:16;100702.97;;;5.96;100.00
38716;BME280;24833;49.324;8.694;2023-11-18T01:52:46;100706.56;;;5.95;100.00
38716;BME280;24833;49.324;8.694;2023-11-18T01:55:14;100708.38;;;5.94;100.00
38716;BME280;24833;49.324;8.694;2023-11-18T01:57:41;100709.38;;;5.93;100.00
38716;BME280;24833;49.324;8.694;2023-11-18T02:00:12;100701.41;;;5.93;100.00
38716;BME280;24833;49.324;8.694;2023-11-18T02:02:40;100713.97;;;5.91;100.00
38716;BME280;24833;49.324;8.694;2023-11-18T02:05:08;100714.81;;;5.92;100.00
38716;BME280;24833;49.324;8.694;2023-11-18T02:07:35;100718.44;;;5.91;100.00
38716;BME280;24833;49.324;8.694;2023-11-18T02:10:05;100713.16;;;5.91;100.00
38716;BME280;24833;49.324;8.694;2023-11-18T02:12:59;100715.06;;;5.89;100.00
38716;BME280;24833;49.324;8.694;2023-11-18T02:15:36;100716.88;;;5.88;100.00
38716;BME280;24833;49.324;8.694;2023-11-18T02:18:06;100716.19;;;5.86;100.00
38716;BME280;24833;49.324;8.694;2023-11-18T02:20:37;100714.50;;;5.85;100.00
38716;BME280;24833;49.324;8.694;2023-11-18T02:23:04;100718.97;;;5.85;100.00
38716;BME280;24833;49.324;8.694;2023-11-18T02:28:06;100725.53;;;5.81;100.00
38716;BME280;24833;49.324;8.694;2023-11-18T02:30:33;100725.53;;;5.81;100.00
38716;BME280;24833;49.324;8.694;2023-11-18T02:33:15;100727.34;;;5.80;100.00
38716;BME280;24833;49.324;8.694;2023-11-18T02:35:53;100730.97;;;5.79;100.00
38716;BME280;24833;49.324;8.694;2023-11-18T02:38:30;100722.19;;;5.79;100.00
38716;BME280;24833;49.324;8.694;2023-11-18T02:41:11;100728.19;;;5.81;100.00
38716;BME280;24833;49.324;8.694;2023-11-18T02:43:40;100729.00;;;5.81;100.00
38716;BME280;24833;49.324;8.694;2023-11-18T02:46:08;100730.72;;;5.82;100.00
38716;BME280;24833;49.324;8.694;2023-11-18T02:48:38;100729.56;;;5.85;100.00
38716;BME280;24833;49.324;8.694;2023-11-18T02:51:06;100726.78;;;5.86;100.00
38716;BME280;24833;49.324;8.694;2023-11-18T02:53:34;100719.66;;;5.87;100.00
38716;BME280;24833;49.324;8.694;2023-11-18T02:56:02;100720.38;;;5.89;100.00
38716;BME280;24833;49.324;8.694;2023-11-18T02:58:32;100712.28;;;5.90;100.00
38716;BME280;24833;49.324;8.694;2023-11-18T03:01:00;100706.88;;;5.92;100.00
38716;BME280;24833;49.324;8.694;2023-11-18T03:03:27;100718.16;;;5.94;100.00
38716;BME280;24833;49.324;8.694;2023-11-18T03:05:55;100710.91;;;5.96;100.00
38716;BME280;24833;49.324;8.694;2023-11-18T03:08:22;100709.78;;;5.98;100.00
38716;BME280;24833;49.324;8.694;2023-11-18T03:10:49;100705.31;;;5.99;100.00
38716;BME280;24833;49.324;8.694;2023-11-18T03:13:19;100708.66;;;6.01;100.00
38716;BME280;24833;49.324;8.694;2023-11-18T03:15:46;100699.75;;;6.02;100.00
38716;BME280;24833;49.324;8.694;2023-11-18T03:18:15;100698.75;;;6.03;100.00
38716;BME280;24833;49.324;8.694;2023-11-18T03:20:43;100695.81;;;6.06;100.00
38716;BME280;24833;49.324;8.694;2023-11-18T03:23:10;100692.16;;;6.07;100.00
38716;BME280;24833;49.324;8.694;2023-11-18T03:25:37;100696.50;;;6.08;100.00
38716;BME280;24833;49.324;8.694;2023-11-18T03:28:05;100700.00;;;6.09;100.00
38716;BME280;24833;49.324;8.694;2023-11-18T03:30:33;100711.28;;;6.11;100.00
38716;BME280;24833;49.324;8.694;2023-11-18T03:33:02;100706.81;;;6.11;100.00
38716;BME280;24833;49.324;8.694;2023-11-18T03:35:30;100704.84;;;6.13;100.00
38716;BME280;24833;49.324;8.694;2023-11-18T03:37:58;100708.34;;;6.14;100.00
38716;BME280;24833;49.324;8.694;2023-11-18T03:40:25;100705.69;;;6.14;100.00
38716;BME280;24833;49.324;8.694;2023-11-18T03:42:52;100706.41;;;6.16;100.00
38716;BME280;24833;49.324;8.694;2023-11-18T03:45:20;100708.91;;;6.17;100.00
38716;BME280;24833;49.324;8.694;2023-11-18T03:47:48;100709.72;;;6.18;100.00
38716;BME280;24833;49.324;8.694;2023-11-18T03:50:17;100708.91;;;6.17;100.00
38716;BME280;24833;49.324;8.694;2023-11-18T03:52:44;100708.91;;;6.17;100.00
38716;BME280;24833;49.324;8.694;2023-11-18T03:55:11;100705.25;;;6.18;100.00
38716;BME280;24833;49.324;8.694;2023-11-18T03:57:39;100702.63;;;6.18;100.00
38716;BME280;24833;49.324;8.694;2023-11-18T04:00:06;100716.72;;;6.19;100.00
38716;BME280;24833;49.324;8.694;2023-11-18T04:02:39;100717.53;;;6.19;100.00
38716;BME280;24833;49.324;8.694;2023-11-18T04:05:09;100718.38;;;6.20;100.00
38716;BME280;24833;49.324;8.694;2023-11-18T04:07:37;100720.19;;;6.19;100.00
38716;BME280;24833;49.324;8.694;2023-11-18T04:10:04;100718.38;;;6.20;100.00
38716;BME280;24833;49.324;8.694;2023-11-18T04:12:37;100714.88;;;6.19;100.00
38716;BME280;24833;49.324;8.694;2023-11-18T04:15:05;100716.56;;;6.20;100.00
38716;BME280;24833;49.324;8.694;2023-11-18T04:17:33;100702.47;;;6.20;100.00
38716;BME280;24833;49.324;8.694;2023-11-18T04:20:00;100704.13;;;6.21;100.00
38716;BME280;24833;49.324;8.694;2023-11-18T04:22:31;100704.13;;;6.21;100.00
38716;BME280;24833;49.324;8.694;2023-11-18T04:24:58;100701.34;;;6.22;100.00
38716;BME280;24833;49.324;8.694;2023-11-18T04:27:25;100698.81;;;6.21;100.00
38716;BME280;24833;49.324;8.694;2023-11-18T04:29:52;100696.06;;;6.22;100.00
38716;BME280;24833;49.324;8.694;2023-11-18T04:32:19;100696.06;;;6.22;100.00
38716;BME280;24833;49.324;8.694;2023-11-18T04:34:46;100688.22;;;6.21;100.00
38716;BME280;24833;49.324;8.694;2023-11-18T04:37:13;100696.88;;;6.23;100.00
38716;BME280;24833;49.324;8.694;2023-11-18T04:39:40;100696.06;;;6.22;100.00
38716;BME280;24833;49.324;8.694;2023-11-18T04:42:07;100689.06;;;6.21;100.00
38716;BME280;24833;49.324;8.694;2023-11-18T04:44:34;100688.38;;;6.19;100.00
38716;BME280;24833;49.324;8.694;2023-11-18T04:47:02;100689.22;;;6.20;100.00
38716;BME280;24833;49.324;8.694;2023-11-18T04:49:29;100700.78;;;6.19;100.00
38716;BME280;24833;49.324;8.694;2023-11-18T04:51:56;100694.66;;;6.18;100.00
38716;BME280;24833;49.324;8.694;2023-11-18T04:54:25;100697.47;;;6.17;100.00
38716;BME280;24833;49.324;8.694;2023-11-18T04:56:52;100696.63;;;6.16;100.00
38716;BME280;24833;49.324;8.694;2023-11-18T04:59:19;100696.63;;;6.16;100.00
38716;BME280;24833;49.324;8.694;2023-11-18T05:01:48;100694.97;;;6.15;100.00
38716;BME280;24833;49.324;8.694;2023-11-18T05:04:15;100693.25;;;6.14;100.00
38716;BME280;24833;49.324;8.694;2023-11-18T05:06:42;100693.25;;;6.14;100.00
38716;BME280;24833;49.324;8.694;2023-11-18T05:09:09;100703.03;;;6.14;100.00
38716;BME280;24833;49.324;8.694;2023-11-18T05:11:36;100701.22;;;6.14;100.00
38716;BME280;24833;49.324;8.694;2023-11-18T05:14:03;100699.56;;;6.13;100.00
38716;BME280;24833;49.324;8.694;2023-11-18T05:16:31;100695.22;;;6.12;100.00
38716;BME280;24833;49.324;8.694;2023-11-18T05:18:58;100690.75;;;6.13;100.00
38716;BME280;24833;49.324;8.694;2023-11-18T05:21:25;100697.88;;;6.12;100.00
38716;BME280;24833;49.324;8.694;2023-11-18T05:23:52;100687.28;;;6.12;100.00
38716;BME280;24833;49.324;8.694;2023-11-18T05:26:19;100693.56;;;6.11;100.00
38716;BME280;24833;49.324;8.694;2023-11-18T05:28:46;100708.63;;;6.11;100.00
38716;BME280;24833;49.324;8.694;2023-11-18T05:31:16;100703.19;;;6.12;100.00
38716;BME280;24833;49.324;8.694;2023-11-18T05:33:45;100698.88;;;6.11;100.00
38716;BME280;24833;49.324;8.694;2023-11-18T05:36:18;100701.53;;;6.11;100.00
38716;BME280;24833;49.324;8.694;2023-11-18T05:38:54;100713.94;;;6.11;100.00
38716;BME280;24833;49.324;8.694;2023-11-18T05:41:22;100703.50;;;6.09;100.00
38716;BME280;24833;49.324;8.694;2023-11-18T05:43:55;100695.53;;;6.09;100.00
38716;BME280;24833;49.324;8.694;2023-11-18T05:46:25;100707.09;;;6.08;100.00
38716;BME280;24833;49.324;8.694;2023-11-18T05:48:53;100692.16;;;6.07;100.00
38716;BME280;24833;49.324;8.694;2023-11-18T05:51:25;100687.69;;;6.08;100.00
38716;BME280;24833;49.324;8.694;2023-11-18T05:53:52;100668.47;;;6.06;100.00
38716;BME280;24833;49.324;8.694;2023-11-18T05:56:20;100671.09;;;6.06;100.00
38716;BME280;24833;49.324;8.694;2023-11-18T05:58:51;100667.63;;;6.05;100.00
38716;BME280;24833;49.324;8.694;2023-11-18T06:01:20;100672.94;;;6.05;100.00
38716;BME280;24833;49.324;8.694;2023-11-18T06:03:47;100672.09;;;6.05;100.00
38716;BME280;24833;49.324;8.694;2023-11-18T06:06:16;100675.72;;;6.04;100.00
38716;BME280;24833;49.324;8.694;2023-11-18T06:08:49;100680.19;;;6.03;100.00
38716;BME280;24833;49.324;8.694;2023-11-18T06:11:16;100684.66;;;6.03;100.00
38716;BME280;24833;49.324;8.694;2023-11-18T06:13:51;100688.16;;;6.03;100.00
38716;BME280;24833;49.324;8.694;2023-11-18T06:16:22;100690.81;;;6.03;100.00
38716;BME280;24833;49.324;8.694;2023-11-18T06:18:56;100684.66;;;6.03;100.00
38716;BME280;24833;49.324;8.694;2023-11-18T06:21:26;100686.50;;;6.02;100.00
38716;BME280;24833;49.324;8.694;2023-11-18T06:23:59;100688.16;;;6.03;100.00
38716;BME280;24833;49.324;8.694;2023-11-18T06:26:27;100696.09;;;6.03;100.00
38716;BME280;24833;49.324;8.694;2023-11-18T06:28:55;100695.28;;;6.03;100.00
38716;BME280;24833;49.324;8.694;2023-11-18T06:31:23;100695.38;;;6.01;100.00
38716;BME280;24833;49.324;8.694;2023-11-18T06:33:51;100697.22;;;6.00;100.00
38716;BME280;24833;49.324;8.694;2023-11-18T06:36:19;100699.03;;;6.00;100.00
38716;BME280;24833;49.324;8.694;2023-11-18T06:38:51;100697.34;;;5.99;100.00
38716;BME280;24833;49.324;8.694;2023-11-18T06:41:20;100699.19;;;5.98;100.00
38716;BME280;24833;49.324;8.694;2023-11-18T06:43:52;100688.72;;;5.97;100.00
38716;BME280;24833;49.324;8.694;2023-11-18T06:46:33;100692.34;;;5.96;100.00
38716;BME280;24833;49.324;8.694;2023-11-18T06:49:07;100688.00;;;5.95;100.00
38716;BME280;24833;49.324;8.694;2023-11-18T06:51:37;100695.28;;;5.93;100.00
38716;BME280;24833;49.324;8.694;2023-11-18T06:54:05;100696.09;;;5.93;100.00
38716;BME280;24833;49.324;8.694;2023-11-18T06:56:42;100697.94;;;5.93;100.00
38716;BME280;24833;49.324;8.694;2023-11-18T06:59:13;100704.22;;;5.92;100.00
38716;BME280;24833;49.324;8.694;2023-11-18T07:01:42;100700.56;;;5.93;100.00
38716;BME280;24833;49.324;8.694;2023-11-18T07:04:11;100705.03;;;5.92;100.00
38716;BME280;24833;49.324;8.694;2023-11-18T07:06:38;100713.16;;;5.91;100.00
38716;BME280;24833;49.324;8.694;2023-11-18T07:09:07;100720.13;;;5.92;100.00
38716;BME280;24833;49.324;8.694;2023-11-18T07:11:47;100712.16;;;5.92;100.00
38716;BME280;24833;49.324;8.694;2023-11-18T07:14:15;100711.19;;;5.93;100.00
38716;BME280;24833;49.324;8.694;2023-11-18T07:16:43;100725.41;;;5.92;100.00
38716;BME280;24833;49.324;8.694;2023-11-18T07:19:11;100718.16;;;5.94;100.00
38716;BME280;24833;49.324;8.694;2023-11-18T07:21:47;100712.84;;;5.94;100.00
38716;BME280;24833;49.324;8.694;2023-11-18T07:24:15;100701.25;;;5.95;100.00
38716;BME280;24833;49.324;8.694;2023-11-18T07:26:42;100713.56;;;5.96;100.00
38716;BME280;24833;49.324;8.694;2023-11-18T07:29:11;100719.81;;;5.95;100.00
38716;BME280;24833;49.324;8.694;2023-11-18T07:31:40;100700.31;;;5.96;100.00
38716;BME280;24833;49.324;8.694;2023-11-18T07:34:07;100702.81;;;5.97;100.00
38716;BME280;24833;49.324;8.694;2023-11-18T07:36:34;100698.34;;;5.98;100.00
38716;BME280;24833;49.324;8.694;2023-11-18T07:39:02;100699.19;;;5.98;100.00
38716;BME280;24833;49.324;8.694;2023-11-18T07:41:33;100707.97;;;5.99;100.00
38716;BME280;24833;49.324;8.694;2023-11-18T07:44:00;100710.59;;;5.99;100.00
38716;BME280;24833;49.324;8.694;2023-11-18T07:46:28;100713.94;;;6.01;100.00
38716;BME280;24833;49.324;8.694;2023-11-18T07:49:04;100709.63;;;6.00;100.00
38716;BME280;24833;49.324;8.694;2023-11-18T07:51:31;100708.66;;;6.01;100.00
38716;BME280;24833;49.324;8.694;2023-11-18T07:54:00;100718.28;;;6.02;100.00
38716;BME280;24833;49.324;8.694;2023-11-18T07:56:29;100713.00;;;6.02;100.00
38716;BME280;24833;49.324;8.694;2023-11-18T07:58:56;100696.94;;;6.04;100.00
38716;BME280;24833;49.324;8.694;2023-11-18T08:01:23;100710.03;;;6.05;100.00
38716;BME280;24833;49.324;8.694;2023-11-18T08:03:50;100709.06;;;6.06;100.00
38716;BME280;24833;49.324;8.694;2023-11-18T08:06:24;100712.53;;;6.07;100.00
38716;BME280;24833;49.324;8.694;2023-11-18T08:08:56;100708.06;;;6.07;100.00
38716;BME280;24833;49.324;8.694;2023-11-18T08:11:24;100711.44;;;6.09;100.00
38716;BME280;24833;49.324;8.694;2023-11-18T08:13:52;100718.41;;;6.10;100.00
38716;BME280;24833;49.324;8.694;2023-11-18T08:16:23;100712.13;;;6.11;100.00
38716;BME280;24833;49.324;8.694;2023-11-18T08:19:24;100704.84;;;6.13;100.00
38716;BME280;24833;49.324;8.694;2023-11-18T08:21:51;100707.34;;;6.15;100.00
38716;BME280;24833;49.324;8.694;2023-11-18T08:24:18;100716.03;;;6.17;100.00
38716;BME280;24833;49.324;8.694;2023-11-18T08:26:53;100710.56;;;6.18;100.00
38716;BME280;24833;49.324;8.694;2023-11-18T08:29:21;100704.97;;;6.21;100.00
38716;BME280;24833;49.324;8.694;2023-11-18T08:31:48;100717.28;;;6.22;100.00
38716;BME280;24833;49.324;8.694;2023-11-18T08:34:16;100715.31;;;6.24;100.00
38716;BME280;24833;49.324;8.694;2023-11-18T08:36:45;100712.50;;;6.26;100.00
38716;BME280;24833;49.324;8.694;2023-11-18T08:39:13;100714.16;;;6.27;100.00
38716;BME280;24833;49.324;8.694;2023-11-18T08:41:43;100716.66;;;6.28;100.00
38716;BME280;24833;49.324;8.694;2023-11-18T08:44:10;100709.41;;;6.31;100.00
38716;BME280;24833;49.324;8.694;2023-11-18T08:46:52;100705.78;;;6.32;100.00
38716;BME280;24833;49.324;8.694;2023-11-18T08:49:19;100707.44;;;6.33;100.00
38716;BME280;24833;49.324;8.694;2023-11-18T08:51:48;100696.84;;;6.33;100.00
38716;BME280;24833;49.324;8.694;2023-11-18T08:54:19;100694.88;;;6.35;100.00
38716;BME280;24833;49.324;8.694;2023-11-18T08:56:49;100695.59;;;6.37;100.00
38716;BME280;24833;49.324;8.694;2023-11-18T08:59:21;100696.41;;;6.37;100.00
38716;BME280;24833;49.324;8.694;2023-11-18T09:01:52;100706.88;;;6.39;100.00
38716;BME280;24833;49.324;8.694;2023-11-18T09:04:23;100699.59;;;6.41;100.00
38716;BME280;24833;49.324;8.694;2023-11-18T09:06:51;100695.97;;;6.42;100.00
38716;BME280;24833;49.324;8.694;2023-11-18T09:09:27;100699.31;;;6.44;100.00
38716;BME280;24833;49.324;8.694;2023-11-18T09:11:56;100696.50;;;6.45;100.00
38716;BME280;24833;49.324;8.694;2023-11-18T09:14:25;100699.03;;;6.47;100.00
38716;BME280;24833;49.324;8.694;2023-11-18T09:16:53;100690.91;;;6.48;100.00
38716;BME280;24833;49.324;8.694;2023-11-18T09:19:26;100693.44;;;6.50;100.00
38716;BME280;24833;49.324;8.694;2023-11-18T09:21:53;100699.41;;;6.52;100.00
38716;BME280;24833;49.324;8.694;2023-11-18T09:24:21;100693.13;;;6.53;100.00
38716;BME280;24833;49.324;8.694;2023-11-18T09:26:52;100686.72;;;6.55;100.00
38716;BME280;24833;49.324;8.694;2023-11-18T09:29:19;100682.25;;;6.56;100.00
38716;BME280;24833;49.324;8.694;2023-11-18T09:31:51;100689.22;;;6.57;100.00
38716;BME280;24833;49.324;8.694;2023-11-18T09:34:21;100690.88;;;6.58;100.00
38716;BME280;24833;49.324;8.694;2023-11-18T09:36:54;100685.41;;;6.60;100.00
38716;BME280;24833;49.324;8.694;2023-11-18T09:39:21;100676.34;;;6.62;100.00
38716;BME280;24833;49.324;8.694;2023-11-18T09:41:56;100679.69;;;6.64;100.00
38716;BME280;24833;49.324;8.694;2023-11-18T09:44:24;100677.03;;;6.64;100.00
38716;BME280;24833;49.324;8.694;2023-11-18T09:46:57;100681.34;;;6.65;100.00
38716;BME280;24833;49.324;8.694;2023-11-18T09:49:33;100683.00;;;6.66;100.00
38716;BME280;24833;49.324;8.694;2023-11-18T09:52:06;100681.03;;;6.68;100.00
38716;BME280;24833;49.324;8.694;2023-11-18T09:54:42;100682.72;;;6.69;100.00
38716;BME280;24833;49.324;8.694;2023-11-18T09:57:32;100685.22;;;6.71;100.00
38716;BME280;24833;49.324;8.694;2023-11-18T10:02:49;100680.75;;;6.71;100.00
38716;BME280;24833;49.324;8.694;2023-11-18T10:05:20;100693.03;;;6.72;100.00
38716;BME280;24833;49.324;8.694;2023-11-18T10:07:50;100690.22;;;6.74;100.00
38716;BME280;24833;49.324;8.694;2023-11-18T10:10:18;100691.91;;;6.75;100.00
38716;BME280;24833;49.324;8.694;2023-11-18T10:12:49;100687.44;;;6.75;100.00
38716;BME280;24833;49.324;8.694;2023-11-18T10:15:22;100684.66;;;6.77;100.00
38716;BME280;24833;49.324;8.694;2023-11-18T10:17:53;100687.97;;;6.79;100.00
38716;BME280;24833;49.324;8.694;2023-11-18T10:23:09;100685.72;;;6.84;100.00
38716;BME280;24833;49.324;8.694;2023-11-18T10:25:56;100681.91;;;6.87;100.00
38716;BME280;24833;49.324;8.694;2023-11-18T10:28:35;100682.59;;;6.89;100.00
38716;BME280;24833;49.324;8.694;2023-11-18T10:31:11;100680.66;;;6.91;100.00
38716;BME280;24833;49.324;8.694;2023-11-18T10:33:46;100683.16;;;6.92;100.00
38716;BME280;24833;49.324;8.694;2023-11-18T10:36:21;100687.63;;;6.92;100.00
38716;BME280;24833;49.324;8.694;2023-11-18T10:38:51;100687.63;;;6.92;100.00
38716;BME280;24833;49.324;8.694;2023-11-18T10:41:22;100679.66;;;6.92;100.00
38716;BME280;24833;49.324;8.694;2023-11-18T10:44:06;100694.59;;;6.93;100.00
38716;BME280;24833;49.324;8.694;2023-11-18T10:46:53;100686.63;;;6.93;100.00
38716;BME280;24833;49.324;8.694;2023-11-18T10:49:27;100680.34;;;6.94;100.00
38716;BME280;24833;49.324;8.694;2023-11-18T10:51:55;100670.44;;;6.96;100.00
38716;BME280;24833;49.324;8.694;2023-11-18T10:54:24;100676.41;;;6.98;100.00
38716;BME280;24833;49.324;8.694;2023-11-18T10:56:55;100671.94;;;6.98;100.00
38716;BME280;24833;49.324;8.694;2023-11-18T10:59:24;100680.56;;;7.00;100.00
38716;BME280;24833;49.324;8.694;2023-11-18T11:01:52;100676.09;;;7.01;100.00
38716;BME280;24833;49.324;8.694;2023-11-18T11:04:19;100671.50;;;7.03;100.00
38716;BME280;24833;49.324;8.694;2023-11-18T11:06:50;100667.84;;;7.04;100.00
38716;BME280;24833;49.324;8.694;2023-11-18T11:09:24;100664.19;;;7.05;100.00
38716;BME280;24833;49.324;8.694;2023-11-18T11:11:59;100657.06;;;7.05;100.00
38716;BME280;24833;49.324;8.694;2023-11-18T11:14:46;100660.41;;;7.07;100.00
38716;BME280;24833;49.324;8.694;2023-11-18T11:17:21;100656.75;;;7.08;100.00
38716;BME280;24833;49.324;8.694;2023-11-18T11:20:08;100648.66;;;7.10;100.00
38716;BME280;24833;49.324;8.694;2023-11-18T11:23:11;100639.69;;;7.11;100.00
38716;BME280;24833;49.324;8.694;2023-11-18T11:26:02;100628.09;;;7.12;100.00
38716;BME280;24833;49.324;8.694;2023-11-18T11:29:07;100626.25;;;7.13;100.00
38716;BME280;24833;49.324;8.694;2023-11-18T11:31:42;100623.44;;;7.14;100.00
38716;BME280;24833;49.324;8.694;2023-11-18T11:34:17;100620.78;;;7.14;100.00
38716;BME280;24833;49.324;8.694;2023-11-18T11:36:47;100607.50;;;7.14;100.00
38716;BME280;24833;49.324;8.694;2023-11-18T11:39:20;100605.69;;;7.15;100.00
38716;BME280;24833;49.324;8.694;2023-11-18T11:41:57;100604.72;;;7.16;100.00
38716;BME280;24833;49.324;8.694;2023-11-18T11:44:26;100586.13;;;7.16;100.00
38716;BME280;24833;49.324;8.694;2023-11-18T11:46:59;100586.13;;;7.16;100.00
38716;BME280;24833;49.324;8.694;2023-11-18T11:49:38;100574.66;;;7.15;100.00
38716;BME280;24833;49.324;8.694;2023-11-18T11:52:20;100588.78;;;7.16;100.00
38716;BME280;24833;49.324;8.694;2023-11-18T11:55:27;100583.47;;;7.16;100.00
38716;BME280;24833;49.324;8.694;2023-11-18T11:57:56;100573.69;;;7.16;100.00
38716;BME280;24833;49.324;8.694;2023-11-18T12:00:27;100560.25;;;7.18;100.00
38716;BME280;24833;49.324;8.694;2023-11-18T12:03:02;100554.09;;;7.17;100.00
38716;BME280;24833;49.324;8.694;2023-11-18T12:05:31;100554.09;;;7.17;100.00
38716;BME280;24833;49.324;8.694;2023-11-18T12:08:00;100563.75;;;7.18;100.00
38716;BME280;24833;49.324;8.694;2023-11-18T12:10:30;100549.63;;;7.18;100.00
38716;BME280;24833;49.324;8.694;2023-11-18T12:13:11;100553.13;;;7.18;100.00
38716;BME280;24833;49.324;8.694;2023-11-18T12:15:55;100539.84;;;7.18;100.00
38716;BME280;24833;49.324;8.694;2023-11-18T12:18:25;100543.16;;;7.20;100.00
38716;BME280;24833;49.324;8.694;2023-11-18T12:20:53;100540.50;;;7.20;100.00
38716;BME280;24833;49.324;8.694;2023-11-18T12:23:24;100530.72;;;7.21;100.00
38716;BME280;24833;49.324;8.694;2023-11-18T12:25:54;100530.72;;;7.21;100.00
38716;BME280;24833;49.324;8.694;2023-11-18T12:28:29;100530.59;;;7.22;100.00
38716;BME280;24833;49.324;8.694;2023-11-18T12:31:04;100528.06;;;7.21;100.00
38716;BME280;24833;49.324;8.694;2023-11-18T12:34:01;100523.75;;;7.20;100.00
38716;BME280;24833;49.324;8.694;2023-11-18T12:40:06;100525.56;;;7.19;100.00
38716;BME280;24833;49.324;8.694;2023-11-18T12:43:00;100520.25;;;7.19;100.00
38716;BME280;24833;49.324;8.694;2023-11-18T12:46:41;100518.59;;;7.18;100.00
38716;BME280;24833;49.324;8.694;2023-11-18T12:49:17;100505.31;;;7.18;100.00
38716;BME280;24833;49.324;8.694;2023-11-18T12:51:55;100505.31;;;7.18;100.00
38716;BME280;24833;49.324;8.694;2023-11-18T12:54:23;100504.31;;;7.19;100.00
38716;BME280;24833;49.324;8.694;2023-11-18T12:56:56;100502.66;;;7.18;100.00
38716;BME280;24833;49.324;8.694;2023-11-18T12:59:24;100506.31;;;7.17;100.00
38716;BME280;24833;49.324;8.694;2023-11-18T13:01:53;100504.66;;;7.16;100.00
38716;BME280;24833;49.324;8.694;2023-11-18T13:04:28;100487.88;;;7.16;100.00
38716;BME280;24833;49.324;8.694;2023-11-18T13:07:01;100477.09;;;7.17;100.00
38716;BME280;24833;49.324;8.694;2023-11-18T13:09:30;100462.97;;;7.17;100.00
38716;BME280;24833;49.324;8.694;2023-11-18T13:12:03;100462.81;;;7.18;100.00
38716;BME280;24833;49.324;8.694;2023-11-18T13:14:36;100467.13;;;7.19;100.00
38716;BME280;24833;49.324;8.694;2023-11-18T13:17:10;100459.16;;;7.19;100.00
38716;BME280;24833;49.324;8.694;2023-11-18T13:19:39;100460.00;;;7.20;100.00
38716;BME280;24833;49.324;8.694;2023-11-18T13:22:12;100450.22;;;7.20;100.00